Главная страница
METAR-TAF:

METAR-TAF

Аэропорты :

Вашингтон, Пенсильвания, США

широта: 40-08N, долгота: 080-17W, высота над уровнем моря: 361 м

Текущие метеонаблюдения

Эта сводка был подготовлена 6 минут назад, в 20:56 UTC
Ветер 5 Узел переменных направлений
Температура 28°C
Влажность 66%
Давление 1016 hPa
Видимость: 16.1 км
небольшая облачность на высоте 4700 фута

METAR: KAFJ 202056Z AUTO VRB05KT 10SM FEW047 28/21 A3000 RMK AO2 SLP152 T02830206 57016

Время: 17:02 (21:02 UTC)


TAF: отсутствует

Метеонаблюдения и прогнозы для более 4000 аэропортов (сводки METAR и TAF).

Имеющиеся станции представлены на карте желтыми и красными точками.

Чтобы увидеть название станции, наведите на нее мышь.

Затем щелкните, чтобы увидеть метеонаблюдения и метеопрогнозы.

Управление картой: чтобы увеличить масштаб, щелкните зеленые кнопки с черным крестиком; чтобы уменьшить масштаб, щелкните зеленую кнопку с тире; для просмотра соседних карт щелкайте зеленые стрелки.


METAR-TAF: